createdAt,value
2018-12-17T00:01:06.536Z,3.60
2018-12-17T00:03:40.568Z,3.60
2018-12-17T00:06:30.523Z,3.60
2018-12-17T00:09:02.390Z,3.60
2018-12-17T00:11:51.470Z,3.60
2018-12-17T00:14:23.155Z,3.60
2018-12-17T00:17:05.236Z,3.50
2018-12-17T00:19:37.056Z,3.60
2018-12-17T00:22:18.636Z,3.60
2018-12-17T00:24:50.517Z,3.60
2018-12-17T00:27:35.605Z,3.60
2018-12-17T00:30:08.928Z,3.60
2018-12-17T00:32:54.132Z,3.60
2018-12-17T00:35:26.460Z,3.60
2018-12-17T00:51:17.220Z,3.60
2018-12-17T00:53:49.180Z,3.60
2018-12-17T01:09:45.074Z,3.70
2018-12-17T01:12:17.445Z,3.70
2018-12-17T01:14:59.342Z,3.60
2018-12-17T01:17:31.345Z,3.60
2018-12-17T01:20:13.013Z,3.60
2018-12-17T01:22:44.960Z,3.60
2018-12-17T01:25:29.287Z,3.60
2018-12-17T01:28:01.582Z,3.60
2018-12-17T01:30:52.781Z,3.60
2018-12-17T01:33:25.039Z,3.60
2018-12-17T01:36:06.910Z,3.60
2018-12-17T01:38:39.143Z,3.60
2018-12-17T01:41:23.883Z,3.60
2018-12-17T01:43:55.733Z,3.70
2018-12-17T01:46:40.857Z,3.70
2018-12-17T01:49:13.152Z,3.70
2018-12-17T01:51:54.933Z,3.70
2018-12-17T01:54:27.358Z,3.70
2018-12-17T01:57:12.731Z,3.70
2018-12-17T01:59:44.868Z,3.70
2018-12-17T02:02:33.789Z,3.70
2018-12-17T02:05:06.016Z,3.70
2018-12-17T02:34:23.746Z,3.80
2018-12-17T02:36:55.701Z,3.80
2018-12-17T02:39:37.456Z,3.80
2018-12-17T02:42:09.292Z,3.80
2018-12-17T02:44:51.716Z,3.80
2018-12-17T02:47:23.962Z,3.80
2018-12-17T02:50:09.209Z,3.80
2018-12-17T02:52:41.969Z,3.80
2018-12-17T02:55:23.834Z,3.80
2018-12-17T02:57:55.853Z,3.80
2018-12-17T03:00:37.914Z,3.80
2018-12-17T03:03:10.479Z,3.90
2018-12-17T03:06:05.032Z,3.90
2018-12-17T03:08:37.059Z,3.90
2018-12-17T03:11:21.881Z,3.80
2018-12-17T03:13:54.492Z,3.90
2018-12-17T03:16:53.907Z,3.80
2018-12-17T03:19:26.103Z,3.80
2018-12-17T03:22:11.536Z,3.90
2018-12-17T03:24:43.738Z,3.90
2018-12-17T03:40:44.974Z,3.90
2018-12-17T03:43:16.665Z,3.90
2018-12-17T03:46:01.995Z,4.00
2018-12-17T03:48:33.875Z,4.00
2018-12-17T03:51:15.496Z,4.00
2018-12-17T03:53:47.284Z,4.00
2018-12-17T03:56:32.175Z,4.00
2018-12-17T03:59:05.159Z,4.00
2018-12-17T04:01:49.921Z,4.10
2018-12-17T04:04:21.736Z,4.10
2018-12-17T04:06:53.383Z,4.10
2018-12-17T04:09:51.086Z,4.10
2018-12-17T04:12:22.749Z,4.10
2018-12-17T04:15:08.120Z,4.10
2018-12-17T04:17:39.858Z,4.10
2018-12-17T04:20:21.697Z,4.10
2018-12-17T04:22:53.259Z,4.10
2018-12-17T04:25:34.378Z,4.10
2018-12-17T04:28:09.407Z,4.10
2018-12-17T04:30:50.752Z,4.10
2018-12-17T04:33:29.017Z,4.20
2018-12-17T05:15:12.362Z,4.20
2018-12-17T05:17:43.924Z,4.10
2018-12-17T05:20:28.756Z,4.10
2018-12-17T05:23:00.439Z,4.10
2018-12-17T05:25:45.244Z,4.10
2018-12-17T05:28:16.885Z,4.10
2018-12-17T05:44:05.445Z,4.30
2018-12-17T05:46:37.024Z,4.30
2018-12-17T05:49:19.103Z,4.30
2018-12-17T05:51:50.956Z,4.30
2018-12-17T05:54:32.220Z,4.30
2018-12-17T05:57:05.126Z,4.30
2018-12-17T05:59:47.189Z,4.30
2018-12-17T06:02:18.944Z,4.30
2018-12-17T06:05:03.905Z,4.40
2018-12-17T06:07:35.851Z,4.40
2018-12-17T06:10:16.938Z,4.40
2018-12-17T06:12:48.386Z,4.40
2018-12-17T06:15:29.528Z,4.40
2018-12-17T06:18:00.972Z,4.40
2018-12-17T06:20:49.233Z,4.40
2018-12-17T06:23:20.899Z,4.40
2018-12-17T06:26:02.331Z,4.40
2018-12-17T06:28:34.000Z,4.40
2018-12-17T06:31:15.217Z,4.40
2018-12-17T06:33:47.248Z,4.30
2018-12-17T06:36:28.597Z,4.30
2018-12-17T06:39:00.329Z,4.30
2018-12-17T06:41:41.474Z,4.30
2018-12-17T06:44:14.388Z,4.30
2018-12-17T06:46:59.222Z,4.30
2018-12-17T06:49:30.929Z,4.30
2018-12-17T06:52:13.054Z,4.30
2018-12-17T06:54:44.772Z,4.30
2018-12-17T06:57:27.038Z,4.30
2018-12-17T06:59:58.841Z,4.20
2018-12-17T07:02:40.206Z,4.20
2018-12-17T07:05:11.878Z,4.20
2018-12-17T07:21:35.284Z,4.10
2018-12-17T07:24:06.841Z,4.10
2018-12-17T07:26:51.806Z,4.10
2018-12-17T07:29:23.512Z,4.10
2018-12-17T07:32:08.279Z,4.10
2018-12-17T07:34:40.280Z,4.20
2018-12-17T07:37:22.076Z,4.10
2018-12-17T07:39:53.748Z,4.10
2018-12-17T07:42:38.593Z,4.20
2018-12-17T07:45:10.316Z,4.20
2018-12-17T07:47:55.350Z,4.20
2018-12-17T07:50:27.110Z,4.30
2018-12-17T07:53:09.190Z,4.20
2018-12-17T07:55:40.672Z,4.20
2018-12-17T07:58:21.896Z,4.20
2018-12-17T08:00:53.477Z,4.20
2018-12-17T08:03:34.694Z,4.20
2018-12-17T08:06:06.169Z,4.20
2018-12-17T08:08:47.401Z,4.10
2018-12-17T08:11:19.154Z,4.10
2018-12-17T08:14:00.305Z,4.10
2018-12-17T08:16:32.334Z,4.10
2018-12-17T08:19:17.339Z,4.20
2018-12-17T08:21:49.147Z,4.20
2018-12-17T08:24:46.429Z,4.20
2018-12-17T08:27:18.217Z,4.20
2018-12-17T08:30:07.736Z,4.20
2018-12-17T08:32:39.586Z,4.30
2018-12-17T08:35:24.400Z,4.20
2018-12-17T08:37:55.954Z,4.30
2018-12-17T08:40:40.854Z,4.20
2018-12-17T08:43:12.462Z,4.30
2018-12-17T08:45:57.183Z,4.30
2018-12-17T08:48:29.017Z,4.30
2018-12-17T08:51:10.220Z,4.30
2018-12-17T08:53:41.611Z,4.20
2018-12-17T08:56:22.849Z,4.20
2018-12-17T08:58:54.547Z,4.30
2018-12-17T09:01:36.066Z,4.30
2018-12-17T09:04:07.578Z,4.30
2018-12-17T09:06:58.486Z,4.30
2018-12-17T09:09:30.386Z,4.30
2018-12-17T09:12:11.877Z,4.40
2018-12-17T09:14:43.692Z,4.50
2018-12-17T09:17:25.172Z,4.50
2018-12-17T09:19:56.920Z,4.50
2018-12-17T09:22:41.874Z,4.60
2018-12-17T09:25:13.704Z,4.60
2018-12-17T09:27:58.420Z,4.70
2018-12-17T09:30:30.043Z,4.70
2018-12-17T09:33:11.394Z,4.80
2018-12-17T09:35:43.049Z,4.80
2018-12-17T09:38:28.029Z,4.90
2018-12-17T09:40:59.501Z,4.90
2018-12-17T09:43:40.668Z,5.00
2018-12-17T09:46:12.425Z,4.90
2018-12-17T09:48:53.731Z,4.90
2018-12-17T09:51:25.360Z,4.90
2018-12-17T09:54:10.142Z,5.00
2018-12-17T09:56:41.791Z,5.10
2018-12-17T10:12:58.744Z,5.40
2018-12-17T10:15:30.456Z,5.40
2018-12-17T10:18:12.056Z,5.30
2018-12-17T10:20:43.671Z,5.30
2018-12-17T10:23:24.872Z,5.30
2018-12-17T10:25:56.741Z,5.30
2018-12-17T10:28:41.536Z,5.30
2018-12-17T10:31:13.378Z,5.40
2018-12-17T10:33:54.667Z,5.40
2018-12-17T10:36:26.346Z,5.40
2018-12-17T10:39:08.769Z,5.40
2018-12-17T10:41:42.648Z,5.40
2018-12-17T10:44:25.869Z,5.40
2018-12-17T10:46:57.589Z,5.40
2018-12-17T10:49:38.876Z,5.40
2018-12-17T10:52:10.880Z,5.40
2018-12-17T10:55:05.251Z,5.50
2018-12-17T10:57:37.056Z,5.50
2018-12-17T11:13:22.301Z,5.90
2018-12-17T11:15:54.437Z,6.00
2018-12-17T11:18:35.897Z,6.10
2018-12-17T11:21:08.092Z,6.10
2018-12-17T11:49:56.964Z,6.10
2018-12-17T11:52:28.763Z,6.10
2018-12-17T11:55:13.688Z,6.10
2018-12-17T11:58:13.985Z,6.10
2018-12-17T12:14:03.180Z,6.30
2018-12-17T12:17:38.255Z,6.40
2018-12-17T12:20:23.040Z,6.40
2018-12-17T12:22:54.609Z,6.50
2018-12-17T12:25:39.288Z,6.60
2018-12-17T12:28:10.811Z,6.70
2018-12-17T12:30:52.218Z,6.80
2018-12-17T12:33:23.701Z,6.90
2018-12-17T12:36:09.523Z,7.00
2018-12-17T12:38:41.037Z,7.10
2018-12-17T12:41:25.904Z,7.20
2018-12-17T12:43:57.663Z,7.20
2018-12-17T12:46:42.345Z,7.30
2018-12-17T12:49:13.944Z,7.50
2018-12-17T12:51:58.782Z,7.50
2018-12-17T12:54:30.334Z,7.60
2018-12-17T13:23:31.500Z,7.80
2018-12-17T13:26:02.971Z,7.70
2018-12-17T13:28:48.909Z,7.60
2018-12-17T13:31:20.745Z,7.60
2018-12-17T13:34:02.005Z,7.50
2018-12-17T13:36:33.648Z,7.50
2018-12-17T13:39:15.009Z,7.40
2018-12-17T13:41:46.642Z,7.40
2018-12-17T13:44:27.916Z,7.40
2018-12-17T13:46:59.519Z,7.30
2018-12-17T13:49:47.375Z,7.30
2018-12-17T13:52:24.123Z,7.30
2018-12-17T13:55:20.872Z,7.30
2018-12-17T13:57:52.735Z,7.30
2018-12-17T14:00:34.277Z,7.20
2018-12-17T14:03:06.473Z,7.30
2018-12-17T14:05:48.356Z,7.30
2018-12-17T14:08:20.011Z,7.30
2018-12-17T14:11:05.106Z,7.30
2018-12-17T14:13:36.696Z,7.30
2018-12-17T14:16:17.924Z,7.30
2018-12-17T14:18:54.607Z,7.30
2018-12-17T14:21:57.168Z,7.20
2018-12-17T14:24:29.117Z,7.10
2018-12-17T14:27:13.988Z,7.00
2018-12-17T14:29:45.658Z,7.00
2018-12-17T14:32:27.200Z,6.90
2018-12-17T14:34:59.129Z,6.90
2018-12-17T14:37:49.423Z,6.90
2018-12-17T14:40:21.097Z,6.80
2018-12-17T14:43:02.513Z,6.80
2018-12-17T14:45:34.441Z,6.80
2018-12-17T14:48:15.704Z,6.70
2018-12-17T14:50:47.496Z,6.70
2018-12-17T14:53:35.261Z,6.60
2018-12-17T14:56:06.971Z,6.60
2018-12-17T14:58:48.369Z,6.50
2018-12-17T15:01:20.431Z,6.40
2018-12-17T15:04:06.132Z,6.40
2018-12-17T15:06:39.498Z,6.30
2018-12-17T15:09:33.636Z,6.20
2018-12-17T15:12:05.350Z,6.10
2018-12-17T15:14:50.252Z,6.10
2018-12-17T15:17:22.380Z,6.00
2018-12-17T15:20:08.489Z,6.00
2018-12-17T15:22:40.162Z,5.90
2018-12-17T15:25:24.714Z,5.80
2018-12-17T15:27:56.506Z,5.80
2018-12-17T15:30:41.752Z,5.70
2018-12-17T15:33:13.982Z,5.70
2018-12-17T15:36:01.728Z,5.70
2018-12-17T15:38:33.557Z,5.60
2018-12-17T15:41:18.802Z,5.60
2018-12-17T15:43:50.581Z,5.50
2018-12-17T15:46:35.653Z,5.50
2018-12-17T15:49:07.377Z,5.40
2018-12-17T15:51:49.072Z,5.40
2018-12-17T15:54:20.843Z,5.30
2018-12-17T15:57:05.972Z,5.30
2018-12-17T15:59:37.726Z,5.20
2018-12-17T16:02:25.412Z,5.20
2018-12-17T16:04:57.299Z,5.20
2018-12-17T16:07:38.617Z,5.10
2018-12-17T16:10:10.117Z,5.10
2018-12-17T16:12:55.307Z,5.10
2018-12-17T16:15:27.004Z,5.10
2018-12-17T16:18:11.795Z,5.10
2018-12-17T16:20:44.792Z,5.10
2018-12-17T16:23:26.316Z,5.00
2018-12-17T16:25:58.265Z,5.00
2018-12-17T16:28:43.221Z,5.00
2018-12-17T16:31:15.241Z,5.10
2018-12-17T16:33:56.545Z,5.00
2018-12-17T16:36:28.437Z,5.00
2018-12-17T16:39:12.988Z,5.10
2018-12-17T16:41:45.146Z,5.10
2018-12-17T16:44:26.861Z,5.10
2018-12-17T16:46:58.763Z,5.10
2018-12-17T16:49:56.557Z,5.10
2018-12-17T16:52:29.420Z,5.10
2018-12-17T17:08:17.715Z,5.20
2018-12-17T17:10:49.547Z,5.20
2018-12-17T17:26:31.865Z,5.30
2018-12-17T17:29:03.880Z,5.30
2018-12-17T17:31:45.360Z,5.30
2018-12-17T17:34:17.537Z,5.30
2018-12-17T17:37:02.483Z,5.40
2018-12-17T17:39:34.261Z,5.40
2018-12-17T17:42:15.711Z,5.40
2018-12-17T17:44:47.645Z,5.40
2018-12-17T17:47:28.984Z,5.50
2018-12-17T17:50:00.762Z,5.50
2018-12-17T17:52:42.023Z,5.50
2018-12-17T17:55:23.511Z,5.50
2018-12-17T17:57:58.515Z,5.50
2018-12-17T18:00:40.163Z,5.60
2018-12-17T18:03:12.921Z,5.60
2018-12-17T18:05:54.164Z,5.60
2018-12-17T18:08:26.086Z,5.60
2018-12-17T18:11:20.400Z,5.60
2018-12-17T18:13:52.581Z,5.60
2018-12-17T18:16:40.679Z,5.60
2018-12-17T18:19:12.520Z,5.70
2018-12-17T18:22:00.442Z,5.70
2018-12-17T18:24:32.388Z,5.70
2018-12-17T18:27:17.715Z,5.70
2018-12-17T18:29:50.349Z,5.70
2018-12-17T18:32:31.676Z,5.70
2018-12-17T18:35:03.640Z,5.70
2018-12-17T18:38:01.109Z,5.70
2018-12-17T18:40:32.816Z,5.80
2018-12-17T18:43:14.241Z,5.70
2018-12-17T18:45:46.305Z,5.80
2018-12-17T19:01:28.263Z,5.70
2018-12-17T19:04:00.274Z,5.70
2018-12-17T19:06:41.432Z,5.70
2018-12-17T19:09:13.204Z,5.80
2018-12-17T19:24:58.801Z,5.80
2018-12-17T19:27:30.926Z,5.80
2018-12-17T19:30:18.114Z,5.80
2018-12-17T19:32:50.311Z,5.80
2018-12-17T19:35:31.999Z,5.80
2018-12-17T19:38:03.783Z,5.80
2018-12-17T19:40:49.200Z,5.80
2018-12-17T19:43:21.000Z,5.90
2018-12-17T19:46:02.784Z,5.90
2018-12-17T19:48:35.458Z,5.90
2018-12-17T19:51:17.116Z,5.90
2018-12-17T19:53:48.924Z,5.90
2018-12-17T19:56:42.899Z,5.90
2018-12-17T19:59:14.973Z,5.90
2018-12-17T20:01:56.332Z,5.90
2018-12-17T20:04:28.434Z,5.90
2018-12-17T20:07:16.471Z,5.90
2018-12-17T20:09:48.259Z,5.90
2018-12-17T20:12:44.101Z,5.90
2018-12-17T20:15:16.117Z,5.90
2018-12-17T20:18:00.932Z,5.90
2018-12-17T20:20:33.060Z,5.90
2018-12-17T20:23:17.983Z,5.90
2018-12-17T20:25:50.118Z,5.90
2018-12-17T20:28:35.034Z,5.90
2018-12-17T20:31:06.979Z,6.00
2018-12-17T20:33:48.532Z,5.90
2018-12-17T20:36:20.342Z,6.00
2018-12-17T20:39:01.795Z,6.00
2018-12-17T20:41:36.201Z,5.90
2018-12-17T20:44:17.477Z,6.00
2018-12-17T20:46:49.662Z,5.90
2018-12-17T20:49:30.884Z,6.00
2018-12-17T20:52:02.695Z,6.00
2018-12-17T20:54:44.168Z,6.00
2018-12-17T20:57:16.043Z,6.00
2018-12-17T21:13:05.688Z,6.10
2018-12-17T21:15:37.890Z,6.10
2018-12-17T21:18:47.507Z,6.10
2018-12-17T21:21:19.242Z,6.10
2018-12-17T21:24:00.674Z,6.10
2018-12-17T21:26:32.312Z,6.10
2018-12-17T21:29:20.389Z,6.10
2018-12-17T21:31:52.018Z,6.10
2018-12-17T21:34:33.897Z,6.10
2018-12-17T21:37:05.701Z,6.10
2018-12-17T21:39:50.577Z,6.20
2018-12-17T21:42:22.230Z,6.20
2018-12-17T21:45:03.901Z,6.20
2018-12-17T21:47:35.712Z,6.20
2018-12-17T21:50:29.599Z,6.30
2018-12-17T21:53:01.403Z,6.20
2018-12-17T21:55:47.313Z,6.30
2018-12-17T21:58:18.949Z,6.30
2018-12-17T22:14:13.275Z,6.40
2018-12-17T22:16:45.253Z,6.40
2018-12-17T22:19:26.599Z,6.50
2018-12-17T22:21:58.678Z,6.50
2018-12-17T22:24:43.792Z,6.50
2018-12-17T22:27:15.444Z,6.50
2018-12-17T22:29:56.553Z,6.50
2018-12-17T22:32:28.664Z,6.50
2018-12-17T22:35:16.446Z,6.50
2018-12-17T22:37:48.599Z,6.50
2018-12-17T22:40:29.984Z,6.60
2018-12-17T22:43:01.541Z,6.60
2018-12-17T22:45:46.429Z,6.60
2018-12-17T22:48:18.415Z,6.60
2018-12-17T22:51:06.237Z,6.60
2018-12-17T22:53:37.881Z,6.60
2018-12-17T22:56:20.053Z,6.60
2018-12-17T22:58:51.861Z,6.70
2018-12-17T23:01:39.873Z,6.60
2018-12-17T23:04:12.830Z,6.70
2018-12-17T23:06:54.013Z,6.70
2018-12-17T23:09:24.240Z,6.70
2018-12-17T23:12:22.816Z,6.80
2018-12-17T23:15:11.556Z,6.80
2018-12-17T23:17:51.138Z,6.80
2018-12-17T23:20:24.920Z,6.80
2018-12-17T23:23:12.322Z,6.70
2018-12-17T23:25:44.336Z,6.70
2018-12-17T23:28:29.360Z,6.80
2018-12-17T23:31:01.084Z,6.80
2018-12-17T23:33:48.928Z,6.80
2018-12-17T23:36:20.508Z,6.80
2018-12-17T23:39:02.690Z,6.80
2018-12-17T23:41:36.221Z,6.80
2018-12-17T23:44:21.200Z,6.70
2018-12-17T23:46:53.077Z,6.70
2018-12-17T23:49:34.370Z,6.80
2018-12-17T23:52:06.167Z,6.80
2018-12-17T23:54:50.974Z,6.80
2018-12-17T23:57:22.576Z,6.90
